Time;durP1;ratioP1;P1;durP2;ratioP2;P2;SDS_P1;SDS_P2;PMS_P1;PMS_P2;Temp;Humidity;BMP_temperature;BMP_pressure;BME280_temperature;BME280_humidity;BME280_pressure;Samples;Min_cycle;Max_cycle;Signal;HPM_P1;HPM_P2
2022/09/29 00:02:24;;;;;;;4.00;3.70;;;;;;;;;;5083615;28;20473;-69
2022/09/29 00:04:52;;;;;;;6.10;4.07;;;;;;;;;;5083635;28;20212;-69
2022/09/29 00:07:18;;;;;;;5.38;3.95;;;;;;;;;;5083987;28;20267;-69
2022/09/29 00:09:48;;;;;;;4.97;4.00;;;;;;;;;;5083815;28;20200;-69
2022/09/29 00:12:14;;;;;;;4.45;4.05;;;;;;;;;;5083500;28;20204;-69
2022/09/29 00:14:40;;;;;;;6.55;4.07;;;;;;;;;;5083644;28;20196;-69
2022/09/29 00:17:06;;;;;;;5.22;4.10;;;;;;;;;;5083079;28;20196;-69
2022/09/29 00:19:33;;;;;;;8.10;3.70;;;;;;;;;;5083533;28;20210;-69
2022/09/29 00:22:00;;;;;;;3.70;3.20;;;;;;;;;;5083390;28;20314;-69
2022/09/29 00:24:27;;;;;;;7.00;4.05;;;;;;;;;;5083275;28;20218;-68
2022/09/29 00:26:55;;;;;;;4.25;3.85;;;;;;;;;;5083453;28;20250;-69
2022/09/29 00:29:21;;;;;;;5.85;4.28;;;;;;;;;;5083453;28;20205;-69
2022/09/29 00:31:47;;;;;;;4.30;3.97;;;;;;;;;;5083470;28;20196;-69
2022/09/29 00:34:14;;;;;;;4.13;3.75;;;;;;;;;;5083037;28;20218;-69
2022/09/29 00:36:40;;;;;;;4.35;3.55;;;;;;;;;;5083540;28;20200;-69
2022/09/29 00:39:07;;;;;;;4.65;4.00;;;;;;;;;;5083001;28;20203;-69
2022/09/29 00:41:34;;;;;;;4.95;4.07;;;;;;;;;;5083263;28;20212;-69
2022/09/29 00:44:03;;;;;;;4.70;4.15;;;;;;;;;;5082933;28;20192;-69
2022/09/29 00:46:36;;;;;;;5.38;4.28;;;;;;;;;;5083181;28;20203;-69
2022/09/29 00:49:05;;;;;;;4.97;3.88;;;;;;;;;;5083029;28;20196;-69
2022/09/29 00:51:33;;;;;;;4.82;4.18;;;;;;;;;;5082777;28;20219;-67
2022/09/29 00:53:59;;;;;;;4.20;3.80;;;;;;;;;;5083005;28;20224;-67
2022/09/29 00:56:26;;;;;;;6.03;4.28;;;;;;;;;;5083480;28;20197;-67
2022/09/29 00:58:54;;;;;;;5.40;4.43;;;;;;;;;;5082987;28;20203;-67
2022/09/29 01:01:23;;;;;;;7.55;4.47;;;;;;;;;;5082821;28;20271;-67
2022/09/29 01:03:50;;;;;;;5.85;4.55;;;;;;;;;;5082416;28;20224;-67
2022/09/29 01:06:18;;;;;;;4.63;4.10;;;;;;;;;;5082561;28;20220;-67
2022/09/29 01:08:46;;;;;;;5.25;4.20;;;;;;;;;;5083154;28;20361;-69
2022/09/29 01:11:13;;;;;;;9.48;4.60;;;;;;;;;;5082779;28;20395;-69
2022/09/29 01:13:41;;;;;;;5.75;4.70;;;;;;;;;;5082426;28;20192;-69
2022/09/29 01:16:08;;;;;;;6.63;4.10;;;;;;;;;;5082515;28;20196;-69
2022/09/29 01:18:36;;;;;;;7.38;4.13;;;;;;;;;;5082367;28;20197;-69
2022/09/29 01:21:09;;;;;;;5.80;4.03;;;;;;;;;;5082569;28;20207;-69
2022/09/29 01:23:47;;;;;;;4.45;4.05;;;;;;;;;;5082159;28;20234;-69
2022/09/29 01:26:25;;;;;;;5.20;3.75;;;;;;;;;;5081585;28;20279;-69
2022/09/29 01:29:17;;;;;;;4.72;3.95;;;;;;;;;;5082304;28;20196;-69
2022/09/29 01:31:52;;;;;;;6.55;3.63;;;;;;;;;;5082118;28;20204;-69
2022/09/29 01:34:25;;;;;;;4.93;4.40;;;;;;;;;;5082011;28;20196;-69
2022/09/29 01:36:54;;;;;;;4.47;4.00;;;;;;;;;;5082079;28;20197;-69
2022/09/29 01:39:26;;;;;;;4.28;3.85;;;;;;;;;;5082340;28;20200;-69
2022/09/29 01:41:55;;;;;;;5.20;4.22;;;;;;;;;;5082280;28;20579;-69
2022/09/29 01:44:24;;;;;;;5.03;4.35;;;;;;;;;;5082384;28;20192;-69
2022/09/29 01:46:53;;;;;;;5.22;4.00;;;;;;;;;;5082588;28;20203;-69
2022/09/29 01:49:20;;;;;;;8.85;4.10;;;;;;;;;;5081988;28;20533;-69
2022/09/29 01:51:49;;;;;;;4.40;3.78;;;;;;;;;;5081933;28;20196;-69
2022/09/29 01:54:18;;;;;;;4.35;3.95;;;;;;;;;;5082046;28;20507;-69
2022/09/29 01:56:48;;;;;;;6.07;3.97;;;;;;;;;;5082090;28;20219;-69
2022/09/29 01:59:18;;;;;;;8.05;4.95;;;;;;;;;;5081999;28;20480;-69
2022/09/29 02:01:47;;;;;;;9.75;5.72;;;;;;;;;;5082388;28;20200;-69
2022/09/29 02:04:16;;;;;;;10.35;5.78;;;;;;;;;;5081756;28;20219;-69
2022/09/29 02:06:46;;;;;;;10.82;6.25;;;;;;;;;;5082107;28;20235;-69
2022/09/29 02:09:14;;;;;;;8.75;6.32;;;;;;;;;;5081964;28;20392;-69
2022/09/29 02:11:42;;;;;;;8.38;6.63;;;;;;;;;;5082085;28;20196;-69
2022/09/29 02:14:12;;;;;;;13.50;6.40;;;;;;;;;;5081983;28;20207;-69
2022/09/29 02:16:41;;;;;;;8.82;5.78;;;;;;;;;;5081862;28;20250;-69
2022/09/29 02:19:08;;;;;;;6.70;5.28;;;;;;;;;;5082002;28;20441;-69
2022/09/29 02:21:36;;;;;;;8.57;5.82;;;;;;;;;;5081694;28;20201;-69
2022/09/29 02:24:02;;;;;;;5.78;5.18;;;;;;;;;;5081549;28;20224;-69
2022/09/29 02:26:32;;;;;;;7.07;5.30;;;;;;;;;;5081562;28;20526;-70
2022/09/29 02:28:59;;;;;;;6.30;5.57;;;;;;;;;;5081612;28;20196;-70
2022/09/29 02:31:25;;;;;;;7.82;5.35;;;;;;;;;;5081872;28;20196;-70
2022/09/29 02:33:51;;;;;;;5.05;4.65;;;;;;;;;;5081564;28;20199;-69
2022/09/29 02:36:22;;;;;;;9.57;6.40;;;;;;;;;;5081693;28;20496;-70
2022/09/29 02:38:53;;;;;;;10.77;6.43;;;;;;;;;;5081709;28;20203;-69
2022/09/29 02:41:29;;;;;;;8.65;6.80;;;;;;;;;;5084720;28;20201;-69
2022/09/29 02:44:22;;;;;;;9.00;6.25;;;;;;;;;;5085325;28;20229;-69
2022/09/29 02:46:57;;;;;;;9.20;6.40;;;;;;;;;;5049341;28;20272;-69
2022/09/29 02:49:33;;;;;;;7.93;5.82;;;;;;;;;;5085412;28;20196;-69
2022/09/29 02:52:02;;;;;;;9.93;5.50;;;;;;;;;;5085474;28;20459;-69
2022/09/29 02:54:36;;;;;;;7.18;5.63;;;;;;;;;;5085152;28;20224;-69
2022/09/29 02:57:08;;;;;;;5.82;5.22;;;;;;;;;;5085251;28;20456;-70
2022/09/29 02:59:37;;;;;;;8.00;5.43;;;;;;;;;;5085181;28;20196;-69
2022/09/29 03:02:03;;;;;;;6.82;4.60;;;;;;;;;;5084989;28;20189;-69
2022/09/29 03:04:29;;;;;;;6.70;4.80;;;;;;;;;;5084775;28;20223;-69
2022/09/29 03:06:56;;;;;;;7.07;5.18;;;;;;;;;;5084866;28;20184;-69
2022/09/29 03:09:22;;;;;;;7.10;5.38;;;;;;;;;;5085191;28;20203;-69
2022/09/29 03:11:50;;;;;;;7.75;4.72;;;;;;;;;;5084778;28;20271;-69
2022/09/29 03:14:16;;;;;;;6.45;5.30;;;;;;;;;;5085177;28;20200;-69
2022/09/29 03:16:42;;;;;;;6.28;4.00;;;;;;;;;;5084751;28;20203;-69
2022/09/29 03:19:09;;;;;;;5.05;4.65;;;;;;;;;;5085019;28;20196;-69
2022/09/29 03:21:35;;;;;;;6.75;4.78;;;;;;;;;;5084846;28;20224;-69
2022/09/29 03:24:02;;;;;;;5.45;4.60;;;;;;;;;;5084340;28;20220;-69
2022/09/29 03:26:29;;;;;;;5.15;4.65;;;;;;;;;;5084482;28;20464;-69
2022/09/29 03:28:56;;;;;;;7.55;5.00;;;;;;;;;;5085060;28;20205;-69
2022/09/29 03:31:22;;;;;;;4.70;4.30;;;;;;;;;;5084651;28;20196;-69
2022/09/29 03:33:49;;;;;;;5.97;4.60;;;;;;;;;;5084517;28;20200;-69
2022/09/29 03:36:15;;;;;;;7.50;4.75;;;;;;;;;;5084717;28;20200;-69
2022/09/29 03:38:42;;;;;;;8.52;5.30;;;;;;;;;;5084245;28;20203;-69
2022/09/29 03:41:09;;;;;;;5.93;4.47;;;;;;;;;;5084464;28;20556;-69
2022/09/29 03:43:35;;;;;;;4.90;4.40;;;;;;;;;;5083913;28;20232;-69
2022/09/29 03:46:03;;;;;;;6.95;4.78;;;;;;;;;;5084419;28;20204;-69
2022/09/29 03:48:30;;;;;;;8.52;4.40;;;;;;;;;;5084589;28;20196;-69
2022/09/29 03:50:56;;;;;;;5.72;4.47;;;;;;;;;;5083473;28;20203;-69
2022/09/29 03:53:23;;;;;;;5.30;4.60;;;;;;;;;;5083469;28;20460;-69
2022/09/29 03:55:50;;;;;;;6.07;4.88;;;;;;;;;;5084233;28;20207;-70
2022/09/29 03:58:17;;;;;;;5.38;4.88;;;;;;;;;;5084049;28;20210;-70
2022/09/29 04:00:43;;;;;;;5.57;4.95;;;;;;;;;;5084133;28;20204;-70
2022/09/29 04:03:11;;;;;;;5.35;4.80;;;;;;;;;;5083732;28;20217;-69
2022/09/29 04:05:37;;;;;;;6.35;4.85;;;;;;;;;;5083993;28;20424;-69
2022/09/29 04:08:03;;;;;;;4.43;4.03;;;;;;;;;;5084026;28;20250;-69
2022/09/29 04:10:30;;;;;;;4.32;4.03;;;;;;;;;;5083598;28;20195;-69
2022/09/29 04:12:56;;;;;;;5.45;4.30;;;;;;;;;;5083468;28;20268;-69
2022/09/29 04:15:22;;;;;;;7.15;4.78;;;;;;;;;;5083637;28;20199;-69
2022/09/29 04:17:49;;;;;;;7.07;3.88;;;;;;;;;;5083760;28;20520;-69
2022/09/29 04:20:17;;;;;;;6.93;3.90;;;;;;;;;;5083764;28;20207;-70
2022/09/29 04:22:43;;;;;;;5.13;3.72;;;;;;;;;;5083390;28;20204;-69
2022/09/29 04:25:10;;;;;;;4.18;3.80;;;;;;;;;;5083673;28;20197;-69
2022/09/29 04:27:36;;;;;;;4.55;3.92;;;;;;;;;;5083383;28;20204;-69
2022/09/29 04:30:02;;;;;;;5.97;4.00;;;;;;;;;;5083302;28;20196;-69
2022/09/29 04:32:29;;;;;;;4.50;3.38;;;;;;;;;;5083305;28;20388;-69
2022/09/29 04:34:55;;;;;;;5.70;3.65;;;;;;;;;;5083348;28;20201;-69
2022/09/29 04:37:23;;;;;;;4.22;3.92;;;;;;;;;;5083373;28;20197;-69
2022/09/29 04:39:49;;;;;;;3.85;3.55;;;;;;;;;;5083179;28;20201;-69
2022/09/29 04:42:16;;;;;;;4.63;4.25;;;;;;;;;;5083014;28;20204;-70
2022/09/29 04:44:42;;;;;;;4.05;3.72;;;;;;;;;;5083403;28;20407;-69
2022/09/29 04:47:08;;;;;;;5.13;3.97;;;;;;;;;;5083062;28;20203;-69
2022/09/29 04:49:35;;;;;;;3.97;3.58;;;;;;;;;;5083111;28;20197;-69
2022/09/29 04:52:01;;;;;;;5.32;3.88;;;;;;;;;;5083042;28;20575;-68
2022/09/29 04:54:31;;;;;;;4.03;3.63;;;;;;;;;;5082647;28;20192;-69
2022/09/29 04:56:57;;;;;;;3.97;3.72;;;;;;;;;;5083098;28;20188;-69
2022/09/29 04:59:24;;;;;;;11.43;7.70;;;;;;;;;;5083061;28;20214;-70
2022/09/29 05:01:50;;;;;;;6.80;6.22;;;;;;;;;;5082964;28;20282;-69
2022/09/29 05:04:16;;;;;;;7.00;5.90;;;;;;;;;;5082159;28;20547;-69
2022/09/29 05:06:43;;;;;;;5.05;4.65;;;;;;;;;;5082641;28;20239;-69
2022/09/29 05:09:09;;;;;;;5.10;4.70;;;;;;;;;;5082905;28;20207;-69
2022/09/29 05:11:37;;;;;;;6.10;4.00;;;;;;;;;;5083171;28;20250;-68
2022/09/29 05:14:04;;;;;;;8.85;3.75;;;;;;;;;;5082199;28;20536;-68
2022/09/29 05:16:31;;;;;;;4.93;3.92;;;;;;;;;;5082653;28;20196;-68
2022/09/29 05:18:57;;;;;;;4.68;4.28;;;;;;;;;;5082547;28;20205;-69
2022/09/29 05:21:24;;;;;;;4.15;3.92;;;;;;;;;;5082451;28;20202;-68
2022/09/29 05:23:51;;;;;;;4.00;3.65;;;;;;;;;;5082159;28;20223;-68
2022/09/29 05:26:17;;;;;;;7.20;4.15;;;;;;;;;;5082479;28;20204;-68
2022/09/29 05:28:46;;;;;;;4.03;3.72;;;;;;;;;;5082564;28;20192;-68
2022/09/29 05:31:13;;;;;;;6.47;3.80;;;;;;;;;;5082523;28;20196;-69
2022/09/29 05:33:40;;;;;;;6.18;4.72;;;;;;;;;;5081977;28;20364;-69
2022/09/29 05:36:07;;;;;;;5.15;4.75;;;;;;;;;;5082391;28;20492;-69
2022/09/29 05:38:34;;;;;;;6.93;5.18;;;;;;;;;;5082422;28;20376;-69
2022/09/29 05:41:03;;;;;;;5.32;4.93;;;;;;;;;;5082240;28;20223;-68
2022/09/29 05:43:30;;;;;;;5.57;4.90;;;;;;;;;;5081953;28;20216;-69
2022/09/29 05:46:01;;;;;;;5.60;5.20;;;;;;;;;;5082472;28;20196;-69
2022/09/29 05:48:29;;;;;;;5.03;4.63;;;;;;;;;;5082140;28;20254;-69
2022/09/29 05:50:55;;;;;;;6.13;5.50;;;;;;;;;;5081884;28;20267;-69
2022/09/29 05:53:22;;;;;;;5.93;5.05;;;;;;;;;;5081939;28;20203;-69
2022/09/29 05:55:48;;;;;;;5.32;4.85;;;;;;;;;;5082113;28;20212;-69
2022/09/29 05:58:14;;;;;;;5.40;4.75;;;;;;;;;;5082144;28;20222;-69
2022/09/29 06:00:40;;;;;;;4.97;4.50;;;;;;;;;;5081968;28;20512;-69
2022/09/29 06:03:08;;;;;;;4.68;4.43;;;;;;;;;;5075471;28;20374;-64
2022/09/29 06:05:38;;;;;;;6.18;5.68;;;;;;;;;;5069049;28;20303;-63
2022/09/29 06:08:04;;;;;;;8.88;4.88;;;;;;;;;;5068314;28;20266;-62
2022/09/29 06:10:31;;;;;;;5.32;4.85;;;;;;;;;;5075283;28;20216;-61
2022/09/29 06:12:57;;;;;;;5.40;4.70;;;;;;;;;;5072086;28;20205;-62
2022/09/29 06:15:23;;;;;;;5.38;4.85;;;;;;;;;;5072378;28;20218;-61
2022/09/29 06:17:54;;;;;;;6.90;5.15;;;;;;;;;;5076690;28;20208;-62
2022/09/29 06:20:22;;;;;;;5.80;5.30;;;;;;;;;;5074888;28;20238;-61
2022/09/29 06:22:50;;;;;;;6.13;5.60;;;;;;;;;;5074739;28;20499;-62
2022/09/29 06:25:16;;;;;;;7.18;5.28;;;;;;;;;;5076815;28;20228;-62
2022/09/29 06:27:43;;;;;;;6.18;5.55;;;;;;;;;;5072282;28;20242;-62
2022/09/29 06:30:11;;;;;;;5.75;5.03;;;;;;;;;;5075942;28;20218;-62
2022/09/29 06:32:38;;;;;;;6.13;5.55;;;;;;;;;;5075887;28;20219;-61
2022/09/29 06:37:50;;;;;;;5.55;4.88;;;;;;;;;;5072382;28;20254;-62
2022/09/29 06:40:19;;;;;;;7.18;5.30;;;;;;;;;;5077039;28;20239;-62
2022/09/29 06:42:45;;;;;;;6.15;5.65;;;;;;;;;;5075931;28;20212;-62
2022/09/29 06:45:12;;;;;;;5.93;5.43;;;;;;;;;;5074700;28;20404;-62
2022/09/29 06:47:38;;;;;;;6.25;5.35;;;;;;;;;;5075425;28;20222;-62
2022/09/29 06:50:05;;;;;;;29.73;21.13;;;;;;;;;;5076499;28;20212;-62
2022/09/29 06:52:32;;;;;;;6.03;5.43;;;;;;;;;;5076299;28;20299;-62
2022/09/29 06:54:59;;;;;;;6.60;5.35;;;;;;;;;;5075911;28;20200;-61
2022/09/29 06:57:26;;;;;;;10.90;5.30;;;;;;;;;;5076805;28;20451;-63
2022/09/29 06:59:52;;;;;;;7.60;5.10;;;;;;;;;;5076852;28;20231;-63
2022/09/29 07:02:18;;;;;;;12.32;5.80;;;;;;;;;;5075367;28;20235;-62
2022/09/29 07:04:46;;;;;;;7.45;5.45;;;;;;;;;;5076990;28;20262;-62
2022/09/29 07:07:13;;;;;;;11.13;5.25;;;;;;;;;;5076478;28;20243;-63
2022/09/29 07:09:39;;;;;;;7.68;5.18;;;;;;;;;;5076012;28;20524;-61
2022/09/29 07:12:07;;;;;;;5.43;5.00;;;;;;;;;;5076786;28;20212;-61
2022/09/29 07:14:33;;;;;;;5.47;4.80;;;;;;;;;;5074974;28;20216;-61
2022/09/29 07:17:00;;;;;;;5.70;4.90;;;;;;;;;;5075037;28;20212;-61
2022/09/29 07:19:27;;;;;;;5.15;4.40;;;;;;;;;;5076383;28;20216;-61
2022/09/29 07:21:54;;;;;;;6.30;4.28;;;;;;;;;;5076057;28;20555;-61
2022/09/29 07:24:20;;;;;;;5.28;4.60;;;;;;;;;;5075097;28;20234;-61
2022/09/29 07:26:46;;;;;;;6.30;4.45;;;;;;;;;;5075922;28;20538;-61
2022/09/29 07:29:15;;;;;;;6.45;4.80;;;;;;;;;;5074517;28;20208;-61
2022/09/29 07:31:41;;;;;;;7.75;5.22;;;;;;;;;;5074958;28;20283;-61
2022/09/29 07:34:07;;;;;;;5.90;5.40;;;;;;;;;;5074281;28;20212;-61
2022/09/29 07:36:37;;;;;;;8.15;5.60;;;;;;;;;;5074588;28;20534;-61
2022/09/29 07:39:04;;;;;;;8.00;5.00;;;;;;;;;;5075707;28;20243;-61
2022/09/29 07:41:30;;;;;;;5.25;4.43;;;;;;;;;;5072181;28;20209;-61
2022/09/29 07:43:56;;;;;;;10.05;4.88;;;;;;;;;;5074297;28;20539;-61
2022/09/29 07:46:24;;;;;;;6.32;4.32;;;;;;;;;;5072583;28;20216;-61
2022/09/29 07:48:50;;;;;;;8.45;4.50;;;;;;;;;;5074848;28;20216;-62
2022/09/29 07:51:18;;;;;;;3.60;3.30;;;;;;;;;;5075848;28;20212;-62
2022/09/29 07:53:44;;;;;;;3.72;3.42;;;;;;;;;;5071664;28;20497;-62
2022/09/29 07:56:12;;;;;;;4.30;3.70;;;;;;;;;;5074104;28;20204;-62
2022/09/29 07:58:38;;;;;;;7.75;4.05;;;;;;;;;;5075633;28;21181;-62
2022/09/29 08:01:09;;;;;;;5.13;4.20;;;;;;;;;;5073785;28;20205;-62
2022/09/29 08:03:37;;;;;;;5.68;4.22;;;;;;;;;;5073994;28;20212;-62
2022/09/29 08:06:04;;;;;;;4.95;4.28;;;;;;;;;;5074084;28;20236;-62
2022/09/29 08:08:30;;;;;;;7.43;4.00;;;;;;;;;;5073671;28;20212;-62
2022/09/29 08:11:03;;;;;;;4.78;4.20;;;;;;;;;;5074294;28;20326;-62
2022/09/29 08:13:31;;;;;;;5.25;3.97;;;;;;;;;;5074895;28;20212;-62
2022/09/29 08:15:58;;;;;;;6.57;3.95;;;;;;;;;;5072916;28;20255;-61
2022/09/29 08:18:24;;;;;;;5.32;4.32;;;;;;;;;;5073607;28;20224;-62
2022/09/29 08:20:52;;;;;;;7.03;4.18;;;;;;;;;;5074662;28;20204;-62
2022/09/29 08:23:19;;;;;;;5.60;3.70;;;;;;;;;;5074121;28;20212;-61
2022/09/29 08:25:45;;;;;;;8.05;4.68;;;;;;;;;;5075140;28;20232;-62
2022/09/29 08:28:11;;;;;;;4.85;4.35;;;;;;;;;;5074608;28;20290;-62
2022/09/29 08:30:38;;;;;;;5.63;4.05;;;;;;;;;;5073076;28;20213;-62
2022/09/29 08:33:06;;;;;;;5.43;4.40;;;;;;;;;;5075101;28;20250;-62
2022/09/29 08:35:33;;;;;;;4.72;3.78;;;;;;;;;;5073490;28;20438;-61
2022/09/29 08:38:00;;;;;;;8.75;4.03;;;;;;;;;;5073688;28;20212;-62
2022/09/29 08:40:27;;;;;;;4.20;3.58;;;;;;;;;;5075285;28;20403;-62
2022/09/29 08:43:00;;;;;;;4.90;4.50;;;;;;;;;;5073946;28;20226;-62
2022/09/29 08:45:29;;;;;;;5.70;3.80;;;;;;;;;;5073306;28;20392;-62
2022/09/29 08:47:59;;;;;;;7.97;3.55;;;;;;;;;;5074464;28;20212;-62
2022/09/29 08:50:28;;;;;;;12.65;9.23;;;;;;;;;;5073350;28;20208;-62
2022/09/29 08:52:57;;;;;;;8.40;4.97;;;;;;;;;;5073543;28;20494;-62
2022/09/29 08:55:26;;;;;;;8.60;6.10;;;;;;;;;;5073799;28;20208;-62
2022/09/29 08:57:55;;;;;;;10.35;4.75;;;;;;;;;;5073669;28;20204;-60
2022/09/29 09:00:25;;;;;;;12.20;4.38;;;;;;;;;;5073153;28;20212;-62
2022/09/29 09:02:59;;;;;;;4.60;3.72;;;;;;;;;;5073679;28;20219;-61
2022/09/29 09:05:32;;;;;;;7.32;4.30;;;;;;;;;;5071460;28;20446;-62
2022/09/29 09:08:01;;;;;;;4.70;3.70;;;;;;;;;;5073418;28;20212;-62
2022/09/29 09:10:34;;;;;;;5.38;3.55;;;;;;;;;;5074088;28;20213;-61
2022/09/29 09:13:05;;;;;;;10.02;4.28;;;;;;;;;;5073492;28;20415;-62
2022/09/29 09:15:41;;;;;;;10.20;3.63;;;;;;;;;;5071391;28;20210;-62
2022/09/29 09:18:16;;;;;;;8.82;4.43;;;;;;;;;;5074075;28;20215;-62
2022/09/29 09:20:44;;;;;;;6.55;4.68;;;;;;;;;;5073179;28;20212;-62
2022/09/29 09:23:15;;;;;;;7.38;4.20;;;;;;;;;;5073017;28;20455;-62
2022/09/29 09:25:47;;;;;;;8.98;3.90;;;;;;;;;;5072282;28;20427;-62
2022/09/29 09:28:15;;;;;;;6.60;3.70;;;;;;;;;;5074650;28;20395;-62
2022/09/29 09:30:44;;;;;;;17.92;9.55;;;;;;;;;;5072715;28;20216;-63
2022/09/29 09:33:18;;;;;;;4.43;3.08;;;;;;;;;;5073648;28;20479;-63
2022/09/29 09:35:46;;;;;;;6.43;2.90;;;;;;;;;;5067551;28;20511;-64
2022/09/29 09:38:15;;;;;;;4.63;2.70;;;;;;;;;;5072827;28;20215;-64
2022/09/29 09:40:44;;;;;;;41.22;20.85;;;;;;;;;;5071750;28;20214;-63
2022/09/29 09:43:14;;;;;;;8.38;5.40;;;;;;;;;;5071673;28;20204;-63
2022/09/29 09:45:42;;;;;;;7.15;3.85;;;;;;;;;;5069600;28;20232;-64
2022/09/29 09:48:12;;;;;;;11.05;5.97;;;;;;;;;;5072767;28;20453;-63
2022/09/29 09:50:41;;;;;;;3.35;2.30;;;;;;;;;;5071252;28;20204;-64
2022/09/29 09:53:16;;;;;;;6.68;2.40;;;;;;;;;;5071883;28;20269;-63
2022/09/29 09:55:46;;;;;;;4.47;2.25;;;;;;;;;;5072974;28;20212;-63
2022/09/29 09:58:21;;;;;;;3.78;2.33;;;;;;;;;;5072986;28;20279;-63
2022/09/29 10:00:50;;;;;;;3.35;2.30;;;;;;;;;;5070773;28;20567;-63
2022/09/29 10:03:18;;;;;;;2.40;2.22;;;;;;;;;;5074373;28;20212;-64
2022/09/29 10:05:45;;;;;;;2.80;2.60;;;;;;;;;;5070190;28;20293;-64
2022/09/29 10:08:15;;;;;;;3.05;2.65;;;;;;;;;;5073050;28;20498;-65
2022/09/29 10:10:42;;;;;;;3.22;2.35;;;;;;;;;;5072666;28;20532;-63
2022/09/29 10:13:12;;;;;;;4.43;2.60;;;;;;;;;;5066210;28;20200;-63
2022/09/29 10:15:42;;;;;;;2.70;2.40;;;;;;;;;;5068496;28;20495;-63
2022/09/29 10:18:12;;;;;;;4.50;2.35;;;;;;;;;;5070263;28;20208;-63
2022/09/29 10:20:40;;;;;;;5.72;2.53;;;;;;;;;;5070286;28;20246;-63
2022/09/29 10:23:20;;;;;;;6.50;2.20;;;;;;;;;;5073161;28;20213;-63
2022/09/29 10:25:51;;;;;;;3.08;2.22;;;;;;;;;;5070563;28;20232;-63
2022/09/29 10:28:19;;;;;;;2.55;1.65;;;;;;;;;;5073247;28;20212;-63
2022/09/29 10:31:00;;;;;;;2.85;1.83;;;;;;;;;;5072812;28;20562;-63
2022/09/29 10:33:28;;;;;;;2.03;1.92;;;;;;;;;;5070178;28;20211;-62
2022/09/29 10:36:04;;;;;;;2.15;1.65;;;;;;;;;;5070408;28;20216;-63
2022/09/29 10:38:31;;;;;;;4.95;1.77;;;;;;;;;;5072331;28;20212;-63
2022/09/29 10:40:59;;;;;;;3.83;1.70;;;;;;;;;;5072285;28;20212;-62
2022/09/29 10:43:32;;;;;;;3.40;1.73;;;;;;;;;;5072271;28;20212;-63
2022/09/29 10:45:58;;;;;;;4.40;1.80;;;;;;;;;;5069679;28;20224;-63
2022/09/29 10:48:25;;;;;;;4.40;1.70;;;;;;;;;;5073386;28;20549;-62
2022/09/29 10:50:52;;;;;;;4.82;1.92;;;;;;;;;;5072418;28;20263;-63
2022/09/29 10:53:21;;;;;;;1.50;1.40;;;;;;;;;;5072561;28;20381;-63
2022/09/29 10:55:50;;;;;;;2.13;1.50;;;;;;;;;;5071093;28;20212;-63
2022/09/29 10:58:20;;;;;;;1.95;1.85;;;;;;;;;;5074041;28;20227;-63
2022/09/29 11:00:49;;;;;;;1.90;1.65;;;;;;;;;;5074003;28;20216;-63
2022/09/29 11:03:18;;;;;;;1.58;1.48;;;;;;;;;;5077116;28;20527;-63
2022/09/29 11:05:51;;;;;;;3.10;2.00;;;;;;;;;;5075326;28;20303;-62
2022/09/29 11:08:18;;;;;;;2.90;2.42;;;;;;;;;;5075217;28;20227;-62
2022/09/29 11:10:46;;;;;;;2.05;1.85;;;;;;;;;;5074120;28;20212;-63
2022/09/29 11:13:33;;;;;;;2.45;1.85;;;;;;;;;;5078559;28;20204;-62
2022/09/29 11:16:04;;;;;;;4.35;2.15;;;;;;;;;;5074064;28;20208;-62
2022/09/29 11:18:34;;;;;;;3.60;1.80;;;;;;;;;;5079698;28;20381;-63
2022/09/29 11:21:04;;;;;;;2.60;1.55;;;;;;;;;;5078698;28;20215;-63
2022/09/29 11:23:35;;;;;;;2.33;1.50;;;;;;;;;;5078904;28;20209;-63
2022/09/29 11:26:13;;;;;;;1.75;1.65;;;;;;;;;;5076917;28;20425;-63
2022/09/29 11:28:51;;;;;;;3.53;1.58;;;;;;;;;;5079385;28;20204;-63
2022/09/29 11:31:40;;;;;;;1.67;1.30;;;;;;;;;;5075957;28;20214;-63
2022/09/29 11:34:25;;;;;;;1.10;1.00;;;;;;;;;;5077139;28;20229;-63
2022/09/29 11:36:59;;;;;;;1.50;1.38;;;;;;;;;;5077408;28;20520;-63
2022/09/29 11:39:29;;;;;;;1.35;1.20;;;;;;;;;;5079245;28;20518;-64
2022/09/29 11:42:00;;;;;;;2.95;1.40;;;;;;;;;;5076399;28;20235;-65
2022/09/29 11:44:48;;;;;;;1.52;1.33;;;;;;;;;;5074116;28;20212;-64
2022/09/29 11:47:21;;;;;;;1.42;1.15;;;;;;;;;;5078719;28;20235;-63
2022/09/29 11:49:55;;;;;;;1.95;1.23;;;;;;;;;;5079433;28;20208;-63
2022/09/29 11:52:40;;;;;;;2.28;1.30;;;;;;;;;;5075281;28;20208;-63
2022/09/29 11:55:17;;;;;;;3.67;1.90;;;;;;;;;;5078582;28;20613;-63
2022/09/29 11:57:50;;;;;;;3.00;1.27;;;;;;;;;;5077778;28;20216;-63
2022/09/29 12:00:18;;;;;;;1.27;1.25;;;;;;;;;;5078270;28;20433;-63
2022/09/29 12:02:59;;;;;;;2.17;1.50;;;;;;;;;;5078362;28;20212;-63
2022/09/29 12:05:33;;;;;;;1.48;1.10;;;;;;;;;;5075842;28;20228;-63
2022/09/29 12:08:08;;;;;;;2.28;1.30;;;;;;;;;;5077299;28;20282;-63
2022/09/29 12:10:42;;;;;;;1.88;1.17;;;;;;;;;;5078272;28;20216;-62
2022/09/29 12:13:13;;;;;;;1.23;1.10;;;;;;;;;;5076706;28;20442;-62
2022/09/29 12:15:43;;;;;;;2.17;1.00;;;;;;;;;;5077003;28;20205;-64
2022/09/29 12:18:13;;;;;;;1.63;1.20;;;;;;;;;;5077694;28;20215;-63
2022/09/29 12:20:43;;;;;;;2.08;1.00;;;;;;;;;;5077394;28;20208;-63
2022/09/29 12:23:11;;;;;;;1.45;0.90;;;;;;;;;;5077573;28;20414;-64
2022/09/29 12:25:39;;;;;;;1.17;1.17;;;;;;;;;;5075412;28;20551;-63
2022/09/29 12:28:07;;;;;;;3.25;1.27;;;;;;;;;;5076770;28;20204;-63
2022/09/29 12:30:37;;;;;;;2.22;1.10;;;;;;;;;;5077534;28;20236;-63
2022/09/29 12:33:05;;;;;;;1.15;1.00;;;;;;;;;;5078238;28;20218;-65
2022/09/29 12:35:35;;;;;;;2.47;0.90;;;;;;;;;;5075103;28;20523;-63
2022/09/29 12:38:08;;;;;;;1.55;0.70;;;;;;;;;;5076988;28;20423;-62
2022/09/29 12:40:37;;;;;;;1.25;0.68;;;;;;;;;;5077232;28;20551;-63
2022/09/29 12:43:08;;;;;;;2.38;2.00;;;;;;;;;;5077042;28;20208;-65
2022/09/29 12:45:37;;;;;;;1.67;1.17;;;;;;;;;;5074071;28;20205;-63
2022/09/29 12:48:14;;;;;;;2.60;1.08;;;;;;;;;;5077400;28;20227;-63
2022/09/29 12:50:44;;;;;;;1.58;0.90;;;;;;;;;;5076004;28;20208;-63
2022/09/29 12:53:15;;;;;;;2.75;0.90;;;;;;;;;;5076398;28;20200;-61
2022/09/29 12:55:45;;;;;;;1.33;0.82;;;;;;;;;;5074826;28;20209;-63
2022/09/29 12:58:14;;;;;;;0.93;0.90;;;;;;;;;;5077182;28;20200;-62
2022/09/29 13:00:43;;;;;;;1.85;0.80;;;;;;;;;;5075821;28;20222;-63
2022/09/29 13:03:22;;;;;;;5.93;1.25;;;;;;;;;;5076142;28;20535;-63
2022/09/29 13:06:10;;;;;;;11.40;1.58;;;;;;;;;;5077042;28;20232;-65
2022/09/29 13:09:03;;;;;;;3.67;0.93;;;;;;;;;;5068813;28;20220;-62
2022/09/29 13:11:41;;;;;;;0.98;0.98;;;;;;;;;;5040250;28;20208;-62
2022/09/29 13:14:15;;;;;;;2.40;0.80;;;;;;;;;;5072709;28;20208;-63
2022/09/29 13:16:50;;;;;;;0.90;0.80;;;;;;;;;;5074588;28;20239;-66
2022/09/29 13:19:34;;;;;;;0.95;0.88;;;;;;;;;;5074980;28;20208;-63
2022/09/29 13:22:19;;;;;;;0.90;0.70;;;;;;;;;;5074661;28;20253;-63
2022/09/29 13:24:53;;;;;;;7.60;1.80;;;;;;;;;;5070366;28;20522;-63
2022/09/29 13:27:30;;;;;;;8.25;1.40;;;;;;;;;;5075451;28;20232;-64
2022/09/29 13:29:58;;;;;;;4.22;1.17;;;;;;;;;;5076060;28;20208;-64
2022/09/29 13:32:25;;;;;;;2.78;1.73;;;;;;;;;;5074213;28;20236;-63
2022/09/29 13:34:54;;;;;;;2.15;1.15;;;;;;;;;;5076234;28;20200;-64
2022/09/29 13:37:22;;;;;;;0.80;0.80;;;;;;;;;;5075439;28;20212;-63
2022/09/29 13:39:53;;;;;;;0.70;0.70;;;;;;;;;;5077231;28;20212;-64
2022/09/29 13:42:37;;;;;;;0.70;0.57;;;;;;;;;;5074756;28;20212;-63
2022/09/29 13:45:23;;;;;;;0.70;0.70;;;;;;;;;;5072498;28;20208;-60
2022/09/29 13:47:50;;;;;;;2.30;0.70;;;;;;;;;;5076738;28;20220;-62
2022/09/29 13:50:32;;;;;;;1.15;1.00;;;;;;;;;;5076572;28;20208;-62
2022/09/29 13:53:13;;;;;;;1.60;0.70;;;;;;;;;;5060608;28;20208;-64
2022/09/29 13:55:48;;;;;;;1.30;0.70;;;;;;;;;;5073306;28;20570;-64
2022/09/29 13:58:22;;;;;;;2.25;1.00;;;;;;;;;;5075928;28;20207;-63
2022/09/29 14:00:48;;;;;;;1.10;1.00;;;;;;;;;;5074477;28;20414;-63
2022/09/29 14:03:23;;;;;;;1.13;0.77;;;;;;;;;;5076842;28;20528;-63
2022/09/29 14:05:54;;;;;;;2.95;0.70;;;;;;;;;;5070940;28;20228;-62
2022/09/29 14:08:22;;;;;;;1.33;1.20;;;;;;;;;;5074765;28;20204;-63
2022/09/29 14:10:50;;;;;;;1.25;1.05;;;;;;;;;;5075266;28;20212;-63
2022/09/29 14:13:20;;;;;;;1.55;0.85;;;;;;;;;;5075854;28;20208;-61
2022/09/29 14:15:58;;;;;;;1.00;0.73;;;;;;;;;;5071874;28;20208;-63
2022/09/29 14:18:28;;;;;;;1.10;1.00;;;;;;;;;;5075605;28;20288;-64
2022/09/29 14:20:59;;;;;;;1.80;0.85;;;;;;;;;;5075816;28;20275;-64
2022/09/29 14:23:43;;;;;;;1.23;1.00;;;;;;;;;;5074739;28;20210;-64
2022/09/29 14:26:24;;;;;;;1.55;1.08;;;;;;;;;;5073588;28;20661;-65
2022/09/29 14:28:53;;;;;;;2.30;0.93;;;;;;;;;;5074311;28;20208;-65
2022/09/29 14:31:22;;;;;;;5.32;1.33;;;;;;;;;;5076091;28;20515;-65
2022/09/29 14:33:51;;;;;;;2.80;1.10;;;;;;;;;;5074445;28;20212;-65
2022/09/29 14:36:19;;;;;;;1.05;0.77;;;;;;;;;;5072543;28;20261;-60
2022/09/29 14:38:47;;;;;;;1.83;1.25;;;;;;;;;;5077182;28;20234;-61
2022/09/29 14:41:23;;;;;;;1.55;1.13;;;;;;;;;;5076523;28;20450;-62
2022/09/29 14:43:52;;;;;;;5.82;1.45;;;;;;;;;;5073334;28;20222;-62
2022/09/29 14:52:08;;;;;;;0.77;0.63;;;;;;;;;;5074850;28;20422;-64
2022/09/29 14:54:41;;;;;;;1.45;0.90;;;;;;;;;;5073537;28;20212;-64
2022/09/29 14:57:11;;;;;;;1.33;0.80;;;;;;;;;;5075586;28;20236;-63
2022/09/29 14:59:45;;;;;;;1.60;0.75;;;;;;;;;;5075767;28;20392;-64
2022/09/29 15:02:20;;;;;;;1.10;0.93;;;;;;;;;;5075046;28;20553;-64
2022/09/29 15:04:49;;;;;;;1.83;0.80;;;;;;;;;;5073832;28;20479;-64
2022/09/29 15:07:17;;;;;;;1.95;1.10;;;;;;;;;;5076246;28;20251;-66